createdAt,value
2018-07-13T00:00:21.385Z,84.86
2018-07-13T00:01:27.007Z,84.97
2018-07-13T00:02:31.764Z,85.06
2018-07-13T00:03:36.475Z,84.96
2018-07-13T00:04:41.972Z,85.05
2018-07-13T00:05:47.635Z,85.08
2018-07-13T00:06:54.224Z,84.90
2018-07-13T00:08:02.611Z,84.85
2018-07-13T00:09:10.624Z,85.15
2018-07-13T00:10:15.264Z,85.07
2018-07-13T00:11:20.061Z,85.27
2018-07-13T00:12:25.541Z,85.37
2018-07-13T00:13:33.031Z,85.36
2018-07-13T00:14:39.274Z,85.68
2018-07-13T00:15:49.733Z,85.63
2018-07-13T00:16:56.593Z,85.68
2018-07-13T00:18:01.160Z,85.67
2018-07-13T00:19:06.936Z,85.75
2018-07-13T00:20:11.476Z,85.50
2018-07-13T00:21:16.048Z,85.68
2018-07-13T00:22:21.865Z,85.83
2018-07-13T00:23:26.687Z,85.94
2018-07-13T00:24:37.059Z,86.02
2018-07-13T00:25:45.486Z,85.85
2018-07-13T00:26:50.252Z,86.03
2018-07-13T00:27:56.027Z,86.20
2018-07-13T00:29:01.575Z,85.87
2018-07-13T00:30:06.114Z,85.92
2018-07-13T00:31:10.864Z,86.11
2018-07-13T00:32:15.780Z,86.43
2018-07-13T00:33:20.306Z,86.55
2018-07-13T00:34:25.164Z,86.55
2018-07-13T00:35:30.235Z,86.79
2018-07-13T00:36:35.425Z,86.64
2018-07-13T00:37:40.637Z,86.66
2018-07-13T00:38:45.596Z,86.80
2018-07-13T00:39:50.181Z,86.60
2018-07-13T00:40:54.868Z,86.75
2018-07-13T00:41:59.785Z,86.76
2018-07-13T00:43:05.207Z,86.75
2018-07-13T00:44:10.690Z,86.96
2018-07-13T00:45:15.820Z,87.03
2018-07-13T00:46:21.217Z,87.07
2018-07-13T00:47:26.979Z,87.06
2018-07-13T00:48:31.513Z,87.03
2018-07-13T00:49:36.060Z,87.07
2018-07-13T00:50:41.870Z,87.04
2018-07-13T00:51:47.749Z,87.13
2018-07-13T00:52:52.256Z,87.06
2018-07-13T00:53:56.761Z,87.15
2018-07-13T00:55:02.075Z,87.31
2018-07-13T00:56:07.007Z,87.13
2018-07-13T00:57:11.592Z,87.00
2018-07-13T00:58:17.448Z,87.06
2018-07-13T00:59:22.010Z,87.17
2018-07-13T01:00:31.808Z,87.15
2018-07-13T01:01:36.793Z,87.20
2018-07-13T01:02:41.649Z,87.27
2018-07-13T01:03:46.222Z,87.32
2018-07-13T01:04:51.052Z,87.54
2018-07-13T01:05:56.068Z,87.33
2018-07-13T01:07:01.582Z,87.49
2018-07-13T01:08:07.042Z,87.50
2018-07-13T01:09:11.579Z,87.43
2018-07-13T01:10:16.482Z,87.32
2018-07-13T01:11:21.410Z,87.28
2018-07-13T01:12:26.470Z,87.50
2018-07-13T01:13:31.047Z,87.49
2018-07-13T01:14:35.634Z,87.64
2018-07-13T01:15:40.344Z,87.82
2018-07-13T01:16:46.591Z,87.70
2018-07-13T01:17:51.765Z,87.85
2018-07-13T01:18:57.757Z,87.75
2018-07-13T01:20:02.494Z,87.94
2018-07-13T01:21:07.153Z,87.94
2018-07-13T01:22:13.070Z,88.01
2018-07-13T01:23:17.741Z,87.95
2018-07-13T01:24:22.797Z,87.93
2018-07-13T01:25:28.194Z,87.97
2018-07-13T01:26:33.630Z,88.09
2018-07-13T01:27:38.274Z,88.19
2018-07-13T01:28:43.729Z,88.30
2018-07-13T01:29:49.889Z,88.35
2018-07-13T01:30:56.779Z,88.24
2018-07-13T01:32:01.710Z,88.31
2018-07-13T01:33:06.579Z,88.40
2018-07-13T01:34:12.218Z,88.42
2018-07-13T01:35:17.144Z,88.43
2018-07-13T01:36:21.770Z,88.34
2018-07-13T01:37:26.799Z,88.53
2018-07-13T01:38:31.439Z,88.40
2018-07-13T01:39:36.587Z,88.67
2018-07-13T01:40:42.177Z,88.55
2018-07-13T01:41:47.292Z,88.58
2018-07-13T01:42:51.999Z,88.70
2018-07-13T01:43:58.285Z,88.60
2018-07-13T01:45:03.438Z,88.60
2018-07-13T01:46:08.803Z,88.70
2018-07-13T01:47:13.448Z,88.75
2018-07-13T01:48:18.114Z,88.73
2018-07-13T01:49:22.739Z,88.91
2018-07-13T01:50:28.267Z,88.77
2018-07-13T01:51:32.894Z,88.95
2018-07-13T01:52:38.636Z,89.22
2018-07-13T01:53:43.300Z,89.01
2018-07-13T01:54:47.933Z,89.17
2018-07-13T01:55:53.721Z,89.28
2018-07-13T01:56:58.433Z,89.28
2018-07-13T01:58:04.735Z,89.25
2018-07-13T01:59:09.558Z,89.28
2018-07-13T02:00:14.053Z,89.35
2018-07-13T02:01:19.809Z,89.36
2018-07-13T02:02:25.962Z,89.54
2018-07-13T02:03:30.920Z,89.33
2018-07-13T02:04:35.932Z,89.45
2018-07-13T02:05:41.121Z,89.41
2018-07-13T02:06:46.211Z,89.41
2018-07-13T02:07:50.968Z,89.63
2018-07-13T02:08:55.628Z,89.71
2018-07-13T02:10:00.294Z,89.64
2018-07-13T02:11:06.317Z,89.75
2018-07-13T02:12:11.116Z,89.63
2018-07-13T02:13:16.927Z,90.00
2018-07-13T02:14:22.041Z,90.11
2018-07-13T02:15:27.823Z,90.10
2018-07-13T02:16:32.355Z,90.33
2018-07-13T02:17:37.138Z,90.24
2018-07-13T02:18:42.182Z,90.22
2018-07-13T02:19:46.962Z,90.27
2018-07-13T02:20:51.491Z,90.52
2018-07-13T02:21:56.252Z,90.63
2018-07-13T02:23:00.940Z,90.64
2018-07-13T02:24:05.567Z,90.77
2018-07-13T02:25:10.130Z,90.55
2018-07-13T02:26:14.801Z,90.77
2018-07-13T02:27:21.348Z,90.62
2018-07-13T02:28:25.927Z,90.64
2018-07-13T02:29:30.474Z,90.78
2018-07-13T02:30:35.033Z,90.66
2018-07-13T02:31:40.125Z,90.65
2018-07-13T02:32:44.739Z,90.68
2018-07-13T02:33:49.763Z,90.79
2018-07-13T02:34:54.847Z,90.69
2018-07-13T02:35:59.449Z,90.69
2018-07-13T02:37:04.117Z,90.62
2018-07-13T02:38:09.504Z,90.77
2018-07-13T02:39:14.330Z,90.79
2018-07-13T02:40:19.543Z,90.49
2018-07-13T02:41:24.094Z,90.76
2018-07-13T02:42:28.732Z,90.73
2018-07-13T02:43:33.849Z,90.66
2018-07-13T02:44:38.518Z,90.75
2018-07-13T02:45:43.701Z,90.97
2018-07-13T02:46:48.649Z,90.91
2018-07-13T02:47:53.340Z,90.98
2018-07-13T02:48:58.010Z,91.02
2018-07-13T02:50:02.843Z,90.92
2018-07-13T02:51:09.265Z,90.83
2018-07-13T02:52:14.572Z,90.92
2018-07-13T02:53:20.057Z,90.90
2018-07-13T02:54:24.948Z,91.04
2018-07-13T02:55:29.593Z,90.81
2018-07-13T02:56:34.741Z,91.08
2018-07-13T02:57:39.708Z,91.01
2018-07-13T02:58:45.028Z,90.93
2018-07-13T02:59:49.869Z,90.88
2018-07-13T03:00:54.529Z,90.87
2018-07-13T03:02:00.398Z,90.92
2018-07-13T03:03:05.157Z,90.88
2018-07-13T03:04:09.723Z,90.93
2018-07-13T03:05:14.451Z,90.71
2018-07-13T03:06:20.018Z,90.68
2018-07-13T03:07:24.930Z,90.82
2018-07-13T03:08:31.381Z,90.69
2018-07-13T03:09:36.957Z,90.92
2018-07-13T03:10:41.634Z,90.78
2018-07-13T03:11:46.313Z,90.87
2018-07-13T03:12:51.274Z,90.72
2018-07-13T03:13:56.092Z,90.92
2018-07-13T03:15:01.039Z,91.00
2018-07-13T03:16:08.585Z,90.84
2018-07-13T03:17:13.274Z,90.76
2018-07-13T03:18:20.984Z,90.73
2018-07-13T03:19:26.901Z,90.59
2018-07-13T03:20:31.648Z,90.81
2018-07-13T03:21:37.523Z,90.83
2018-07-13T03:22:42.220Z,90.89
2018-07-13T03:23:47.120Z,90.71
2018-07-13T03:24:51.866Z,90.75
2018-07-13T03:25:58.009Z,90.79
2018-07-13T03:27:02.895Z,90.50
2018-07-13T03:28:07.435Z,90.62
2018-07-13T03:29:12.598Z,90.54
2018-07-13T03:30:17.194Z,90.83
2018-07-13T03:31:21.813Z,90.86
2018-07-13T03:32:26.941Z,90.35
2018-07-13T03:33:32.182Z,91.05
2018-07-13T03:34:36.811Z,90.72
2018-07-13T03:35:41.393Z,90.87
2018-07-13T03:36:46.387Z,90.69
2018-07-13T03:37:50.929Z,90.81
2018-07-13T03:38:56.265Z,90.75
2018-07-13T03:40:01.164Z,90.68
2018-07-13T03:41:06.605Z,90.50
2018-07-13T03:42:11.571Z,90.78
2018-07-13T03:43:16.474Z,90.59
2018-07-13T03:44:21.145Z,90.54
2018-07-13T03:45:26.354Z,90.82
2018-07-13T03:46:31.459Z,90.87
2018-07-13T03:47:37.498Z,90.83
2018-07-13T03:48:42.225Z,90.79
2018-07-13T03:49:47.534Z,90.87
2018-07-13T03:50:52.506Z,90.99
2018-07-13T03:51:57.769Z,90.88
2018-07-13T03:53:02.403Z,90.65
2018-07-13T03:54:07.025Z,90.74
2018-07-13T03:55:12.469Z,90.51
2018-07-13T03:56:17.065Z,90.56
2018-07-13T03:57:22.387Z,90.67
2018-07-13T03:58:27.261Z,90.28
2018-07-13T03:59:31.816Z,90.36
2018-07-13T04:00:37.193Z,90.53
2018-07-13T04:01:42.934Z,90.60
2018-07-13T04:02:47.630Z,90.65
2018-07-13T04:03:54.111Z,90.43
2018-07-13T04:04:59.780Z,90.72
2018-07-13T04:06:05.336Z,90.50
2018-07-13T04:07:11.081Z,90.58
2018-07-13T04:08:16.289Z,90.68
2018-07-13T04:09:21.271Z,90.57
2018-07-13T04:10:26.971Z,90.52
2018-07-13T04:11:32.278Z,90.48
2018-07-13T04:12:36.994Z,90.32
2018-07-13T04:13:41.753Z,90.48
2018-07-13T04:14:46.498Z,90.66
2018-07-13T04:15:51.192Z,90.42
2018-07-13T04:16:56.984Z,90.55
2018-07-13T04:18:02.742Z,90.44
2018-07-13T04:19:07.500Z,90.50
2018-07-13T04:20:12.960Z,90.48
2018-07-13T04:21:17.647Z,90.55
2018-07-13T04:22:22.721Z,90.47
2018-07-13T04:23:27.442Z,90.55
2018-07-13T04:24:37.057Z,90.33
2018-07-13T04:25:43.245Z,90.39
2018-07-13T04:26:51.257Z,90.55
2018-07-13T04:27:55.962Z,90.51
2018-07-13T04:29:00.656Z,90.56
2018-07-13T04:30:05.726Z,90.52
2018-07-13T04:31:11.661Z,90.30
2018-07-13T04:32:16.392Z,90.34
2018-07-13T04:33:21.262Z,90.66
2018-07-13T04:34:25.937Z,90.67
2018-07-13T04:35:31.058Z,90.68
2018-07-13T04:36:35.667Z,90.48
2018-07-13T04:37:40.689Z,90.38
2018-07-13T04:38:45.277Z,90.80
2018-07-13T04:39:49.882Z,90.59
2018-07-13T04:40:54.978Z,90.54
2018-07-13T04:41:59.656Z,90.58
2018-07-13T04:43:04.276Z,90.35
2018-07-13T04:44:09.284Z,90.30
2018-07-13T04:45:13.868Z,90.23
2018-07-13T04:46:20.357Z,90.39
2018-07-13T04:47:26.257Z,90.62
2018-07-13T04:48:34.209Z,90.70
2018-07-13T04:49:42.738Z,90.56
2018-07-13T04:50:48.447Z,90.36
2018-07-13T04:51:53.640Z,90.51
2018-07-13T04:52:58.541Z,90.57
2018-07-13T04:54:03.311Z,90.50
2018-07-13T04:55:08.237Z,90.36
2018-07-13T04:56:12.952Z,90.44
2018-07-13T04:57:18.539Z,90.32
2018-07-13T04:58:23.305Z,90.38
2018-07-13T04:59:29.326Z,90.40
2018-07-13T05:00:35.458Z,90.45
2018-07-13T05:01:40.142Z,90.31
2018-07-13T05:02:45.267Z,89.94
2018-07-13T05:03:51.066Z,90.20
2018-07-13T05:04:56.532Z,90.38
2018-07-13T05:06:01.154Z,90.17
2018-07-13T05:07:05.810Z,89.74
2018-07-13T05:08:10.361Z,89.82
2018-07-13T05:09:16.279Z,90.02
2018-07-13T05:10:22.255Z,89.90
2018-07-13T05:11:28.290Z,89.75
2018-07-13T05:12:34.027Z,89.72
2018-07-13T05:13:38.714Z,89.61
2018-07-13T05:14:43.302Z,89.56
2018-07-13T05:15:49.840Z,89.54
2018-07-13T05:16:57.653Z,89.62
2018-07-13T05:18:05.083Z,89.43
2018-07-13T05:19:09.787Z,89.79
2018-07-13T05:20:15.573Z,89.62
2018-07-13T05:21:20.374Z,89.79
2018-07-13T05:22:26.193Z,89.68
2018-07-13T05:23:32.040Z,89.75
2018-07-13T05:24:37.227Z,89.60
2018-07-13T05:25:43.582Z,89.44
2018-07-13T05:26:48.319Z,89.53
2018-07-13T05:27:53.069Z,89.47
2018-07-13T05:28:58.268Z,89.57
2018-07-13T05:30:03.914Z,89.30
2018-07-13T05:31:09.163Z,89.65
2018-07-13T05:32:13.997Z,89.27
2018-07-13T05:33:19.943Z,89.20
2018-07-13T05:34:26.433Z,89.10
2018-07-13T05:35:34.064Z,88.98
2018-07-13T05:36:39.248Z,88.70
2018-07-13T05:37:45.945Z,88.65
2018-07-13T05:38:51.802Z,88.75
2018-07-13T05:39:57.779Z,88.84
2018-07-13T05:41:04.016Z,88.71
2018-07-13T05:42:10.289Z,88.69
2018-07-13T05:43:15.390Z,88.62
2018-07-13T05:44:21.008Z,88.90
2018-07-13T05:45:25.806Z,88.63
2018-07-13T05:46:31.613Z,88.74
2018-07-13T05:47:36.347Z,88.80
2018-07-13T05:48:41.537Z,88.69
2018-07-13T05:49:48.258Z,88.62
2018-07-13T05:50:53.014Z,88.74
2018-07-13T05:51:57.777Z,88.84
2018-07-13T05:53:02.614Z,88.67
2018-07-13T05:54:07.314Z,88.49
2018-07-13T05:55:12.861Z,88.44
2018-07-13T05:56:18.707Z,88.22
2018-07-13T05:57:23.552Z,88.01
2018-07-13T05:58:28.712Z,87.89
2018-07-13T05:59:34.857Z,87.68
2018-07-13T06:00:40.675Z,87.86
2018-07-13T06:01:49.370Z,87.76
2018-07-13T06:02:54.093Z,87.40
2018-07-13T06:03:59.141Z,87.48
2018-07-13T06:05:03.869Z,87.45
2018-07-13T06:06:10.340Z,87.28
2018-07-13T06:07:15.980Z,87.23
2018-07-13T06:08:21.215Z,87.02
2018-07-13T06:09:27.472Z,87.44
2018-07-13T06:10:33.182Z,87.78
2018-07-13T06:11:37.883Z,87.75
2018-07-13T06:12:43.657Z,87.76
2018-07-13T06:13:50.367Z,87.63
2018-07-13T06:14:55.625Z,88.04
2018-07-13T06:16:00.656Z,88.05
2018-07-13T06:17:05.828Z,87.73
2018-07-13T06:18:11.462Z,87.72
2018-07-13T06:19:16.394Z,87.92
2018-07-13T06:20:28.777Z,87.89
2018-07-13T06:21:36.728Z,87.58
2018-07-13T06:22:43.399Z,87.44
2018-07-13T06:23:50.173Z,87.74
2018-07-13T06:24:57.770Z,87.66
2018-07-13T06:26:04.274Z,87.39
2018-07-13T06:27:10.335Z,87.34
2018-07-13T06:28:16.754Z,87.33
2018-07-13T06:29:21.497Z,87.08
2018-07-13T06:30:27.131Z,86.90
2018-07-13T06:31:32.816Z,86.93
2018-07-13T06:32:39.640Z,86.36
2018-07-13T06:33:45.317Z,86.25
2018-07-13T06:34:51.498Z,85.98
2018-07-13T06:35:56.216Z,86.27
2018-07-13T06:37:00.953Z,85.84
2018-07-13T06:38:05.765Z,85.73
2018-07-13T06:39:11.913Z,85.57
2018-07-13T06:40:19.387Z,85.22
2018-07-13T06:41:24.206Z,85.08
2018-07-13T06:42:28.931Z,84.98
2018-07-13T06:43:33.630Z,84.95
2018-07-13T06:44:38.320Z,84.71
2018-07-13T06:45:43.058Z,84.60
2018-07-13T06:46:48.717Z,84.34
2018-07-13T06:47:53.447Z,84.07
2018-07-13T06:48:58.214Z,83.36
2018-07-13T06:50:03.713Z,83.28
2018-07-13T06:51:08.498Z,83.40
2018-07-13T06:52:13.224Z,83.44
2018-07-13T06:53:20.031Z,83.43
2018-07-13T06:54:24.729Z,83.45
2018-07-13T06:55:29.456Z,82.91
2018-07-13T06:56:34.153Z,82.93
2018-07-13T06:57:43.941Z,82.47
2018-07-13T06:58:54.750Z,82.52
2018-07-13T06:59:59.451Z,82.71
2018-07-13T07:01:06.957Z,82.44
2018-07-13T07:02:15.850Z,82.32
2018-07-13T07:03:20.594Z,82.05
2018-07-13T07:04:27.490Z,81.57
2018-07-13T07:06:34.301Z,81.52
2018-07-13T07:07:40.114Z,81.00
2018-07-13T07:08:45.366Z,80.83
2018-07-13T07:09:57.387Z,80.77
2018-07-13T07:11:02.800Z,80.45
2018-07-13T07:13:10.298Z,80.19
2018-07-13T07:14:15.904Z,80.06
2018-07-13T07:15:21.282Z,79.58
2018-07-13T07:16:27.661Z,79.06
2018-07-13T07:17:33.380Z,78.69
2018-07-13T07:18:38.165Z,78.26
2018-07-13T07:19:42.955Z,78.03
2018-07-13T07:20:47.690Z,77.29
2018-07-13T07:21:53.425Z,76.84
2018-07-13T07:22:58.179Z,76.47
2018-07-13T07:24:03.020Z,76.33
2018-07-13T07:25:08.670Z,76.04
2018-07-13T07:26:14.395Z,75.62
2018-07-13T07:27:19.579Z,75.35
2018-07-13T07:28:24.500Z,75.43
2018-07-13T07:29:29.463Z,75.44
2018-07-13T07:30:34.315Z,75.63
2018-07-13T07:31:39.143Z,75.27
2018-07-13T07:32:45.015Z,74.97
2018-07-13T07:33:50.150Z,74.63
2018-07-13T07:34:55.072Z,74.30
2018-07-13T07:36:01.616Z,74.24
2018-07-13T07:37:06.550Z,73.92
2018-07-13T07:38:12.591Z,73.62
2018-07-13T07:39:18.182Z,73.53
2018-07-13T07:40:24.341Z,72.82
2018-07-13T07:41:29.151Z,72.39
2018-07-13T07:42:35.064Z,71.86
2018-07-13T07:43:39.811Z,71.90
2018-07-13T07:44:44.559Z,71.74
2018-07-13T07:45:49.293Z,71.87
2018-07-13T07:46:54.404Z,71.83
2018-07-13T07:47:59.493Z,71.22
2018-07-13T07:49:05.121Z,70.75
2018-07-13T07:50:10.051Z,70.59
2018-07-13T07:51:14.842Z,70.00
2018-07-13T07:52:19.586Z,70.33
2018-07-13T07:53:24.240Z,69.84
2018-07-13T07:54:28.970Z,69.39
2018-07-13T07:55:33.596Z,68.79
2018-07-13T07:56:38.278Z,68.29
2018-07-13T07:57:43.114Z,67.90
2018-07-13T07:58:48.923Z,67.38
2018-07-13T07:59:53.835Z,67.71
2018-07-13T08:00:58.534Z,67.95
2018-07-13T08:02:03.491Z,68.00
2018-07-13T08:03:08.236Z,67.98
2018-07-13T08:04:13.789Z,68.52
2018-07-13T08:05:18.895Z,68.69
2018-07-13T08:06:25.527Z,68.76
2018-07-13T08:07:30.971Z,68.20
2018-07-13T08:08:35.765Z,68.18
2018-07-13T08:09:40.542Z,68.06
2018-07-13T08:10:45.667Z,67.75
2018-07-13T08:11:52.633Z,66.95
2018-07-13T08:12:57.374Z,66.94
2018-07-13T08:14:03.337Z,66.48
2018-07-13T08:15:08.176Z,66.05
2018-07-13T08:16:15.895Z,65.34
2018-07-13T08:17:20.801Z,65.27
2018-07-13T08:18:27.060Z,64.91
2018-07-13T08:19:31.768Z,64.87
2018-07-13T08:20:38.252Z,65.05
2018-07-13T08:21:45.920Z,65.11
2018-07-13T08:22:51.589Z,64.75
2018-07-13T08:23:56.521Z,64.35
2018-07-13T08:25:01.888Z,63.82
2018-07-13T08:26:09.718Z,63.77
2018-07-13T08:27:15.977Z,63.65
2018-07-13T08:28:20.964Z,62.46
2018-07-13T08:29:28.481Z,62.63
2018-07-13T08:30:34.353Z,62.24
2018-07-13T08:31:39.556Z,62.91
2018-07-13T08:32:47.358Z,62.51
2018-07-13T08:33:52.936Z,62.62
2018-07-13T08:34:57.770Z,62.61
2018-07-13T08:36:02.641Z,62.67
2018-07-13T08:37:07.413Z,62.61
2018-07-13T08:38:12.690Z,62.36
2018-07-13T08:39:18.422Z,61.48
2018-07-13T08:40:24.316Z,61.32
2018-07-13T08:41:29.076Z,60.88
2018-07-13T08:42:33.793Z,60.63
2018-07-13T08:43:38.496Z,60.69
2018-07-13T08:44:47.703Z,60.52
2018-07-13T08:45:53.484Z,59.82
2018-07-13T08:46:59.075Z,59.71
2018-07-13T08:48:04.155Z,58.69
2018-07-13T08:49:09.847Z,58.23
2018-07-13T08:50:14.597Z,58.84
2018-07-13T08:51:23.276Z,59.02
2018-07-13T08:52:28.852Z,58.71
2018-07-13T08:53:34.745Z,58.42
2018-07-13T08:54:39.535Z,58.14
2018-07-13T08:55:44.646Z,57.64
2018-07-13T08:56:49.635Z,58.07
2018-07-13T08:57:57.545Z,58.60
2018-07-13T08:59:03.426Z,58.21
2018-07-13T09:00:09.549Z,58.37
2018-07-13T09:01:15.428Z,58.13
2018-07-13T09:02:20.167Z,57.70
2018-07-13T09:03:25.988Z,57.60
2018-07-13T09:04:31.046Z,57.92
2018-07-13T09:05:35.775Z,57.96
2018-07-13T09:06:40.471Z,57.57
2018-07-13T09:07:46.072Z,57.29
2018-07-13T09:08:51.593Z,57.15
2018-07-13T09:09:59.964Z,56.97
2018-07-13T09:11:04.669Z,57.02
2018-07-13T09:12:10.544Z,57.02
2018-07-13T09:13:16.739Z,56.67
2018-07-13T09:14:21.476Z,56.55
2018-07-13T09:15:26.223Z,55.87
2018-07-13T09:16:31.244Z,55.86
2018-07-13T09:17:37.626Z,54.96
2018-07-13T09:18:42.533Z,54.50
2018-07-13T09:19:47.288Z,54.37
2018-07-13T09:20:53.754Z,54.07
2018-07-13T09:21:58.472Z,53.74
2018-07-13T09:23:03.643Z,53.36
2018-07-13T09:24:08.423Z,53.20
2018-07-13T09:25:13.271Z,52.73
2018-07-13T09:26:18.023Z,52.15
2018-07-13T09:27:23.694Z,52.00
2018-07-13T09:28:33.613Z,51.94
2018-07-13T09:29:39.023Z,51.69
2018-07-13T09:30:43.715Z,51.64
2018-07-13T09:31:48.451Z,51.04
2018-07-13T09:32:53.236Z,50.81
2018-07-13T09:33:59.117Z,50.16
2018-07-13T09:35:04.173Z,50.24
2018-07-13T09:36:09.870Z,49.89
2018-07-13T09:37:14.613Z,49.33
2018-07-13T09:38:19.801Z,49.52
2018-07-13T09:39:25.361Z,48.94
2018-07-13T09:41:41.634Z,48.11
2018-07-13T09:42:46.363Z,47.68
2018-07-13T09:43:52.592Z,48.08
2018-07-13T09:44:59.233Z,47.63
2018-07-13T09:46:09.510Z,48.27
2018-07-13T09:47:14.841Z,48.53
2018-07-13T09:48:20.673Z,48.94
2018-07-13T09:49:26.370Z,49.00
2018-07-13T09:50:33.835Z,48.42
2018-07-13T09:51:39.012Z,48.27
2018-07-13T09:52:45.161Z,48.10
2018-07-13T09:53:50.636Z,48.06
2018-07-13T09:54:55.687Z,47.99
2018-07-13T09:56:01.291Z,47.78
2018-07-13T09:57:06.051Z,48.39
2018-07-13T09:58:10.784Z,47.87
2018-07-13T09:59:16.532Z,47.47
2018-07-13T10:00:29.636Z,47.55
2018-07-13T10:01:34.982Z,48.04
2018-07-13T10:02:40.702Z,47.85
2018-07-13T10:03:46.667Z,47.18
2018-07-13T10:04:52.208Z,47.09
2018-07-13T10:05:57.875Z,47.00
2018-07-13T10:07:04.234Z,47.17
2018-07-13T10:08:11.798Z,47.93
2018-07-13T10:09:16.445Z,48.41
2018-07-13T10:10:21.169Z,49.08
2018-07-13T10:11:25.963Z,48.73
2018-07-13T10:12:30.686Z,48.69
2018-07-13T10:13:36.572Z,48.29
2018-07-13T10:14:41.256Z,47.84
2018-07-13T10:15:46.945Z,48.00
2018-07-13T10:16:52.677Z,47.65
2018-07-13T10:17:59.182Z,48.07
2018-07-13T10:19:05.747Z,48.17
2018-07-13T10:20:11.961Z,48.55
2018-07-13T10:21:18.545Z,48.62
2018-07-13T10:22:28.989Z,49.03
2018-07-13T10:23:35.193Z,49.02
2018-07-13T10:24:39.896Z,49.42
2018-07-13T10:25:46.867Z,49.29
2018-07-13T10:26:52.889Z,49.26
2018-07-13T10:27:57.625Z,48.98
2018-07-13T10:29:03.353Z,49.02
2018-07-13T10:30:09.105Z,49.36
2018-07-13T10:31:14.762Z,49.24
2018-07-13T10:32:20.853Z,49.28
2018-07-13T10:33:26.763Z,49.26
2018-07-13T10:34:32.937Z,49.36
2018-07-13T10:35:40.401Z,49.40
2018-07-13T10:36:49.783Z,49.06
2018-07-13T10:37:57.598Z,48.69
2018-07-13T10:39:03.505Z,47.53
2018-07-13T10:40:09.299Z,46.98
2018-07-13T10:41:14.779Z,47.01
2018-07-13T10:42:20.215Z,46.38
2018-07-13T10:43:28.006Z,46.05
2018-07-13T10:44:34.000Z,46.03
2018-07-13T10:45:39.368Z,45.95
2018-07-13T10:46:44.376Z,45.52
2018-07-13T10:47:49.209Z,45.57
2018-07-13T10:48:54.983Z,45.03
2018-07-13T10:49:59.670Z,45.41
2018-07-13T10:51:05.767Z,45.13
2018-07-13T10:52:12.587Z,45.31
2018-07-13T10:53:18.161Z,45.01
2018-07-13T10:54:23.345Z,45.21
2018-07-13T10:55:28.104Z,45.09
2018-07-13T10:56:33.009Z,45.26
2018-07-13T10:57:38.765Z,44.80
2018-07-13T10:58:44.543Z,45.11
2018-07-13T10:59:49.655Z,44.98
2018-07-13T11:00:55.244Z,44.44
2018-07-13T11:01:59.834Z,44.30
2018-07-13T11:03:05.369Z,44.33
2018-07-13T11:04:11.117Z,44.40
2018-07-13T11:05:17.787Z,44.08
2018-07-13T11:06:22.428Z,44.14
2018-07-13T11:07:27.491Z,44.09
2018-07-13T11:08:32.180Z,44.14
2018-07-13T11:09:37.715Z,43.63
2018-07-13T11:10:42.362Z,42.93
2018-07-13T11:11:47.377Z,42.72
2018-07-13T11:12:54.364Z,42.74
2018-07-13T11:13:59.092Z,42.60
2018-07-13T11:15:04.149Z,42.52
2018-07-13T11:16:08.777Z,42.53
2018-07-13T11:17:14.655Z,41.87
2018-07-13T11:18:19.358Z,42.02
2018-07-13T11:19:24.095Z,41.62
2018-07-13T11:20:28.748Z,41.55
2018-07-13T11:21:33.831Z,41.48
2018-07-13T11:22:39.501Z,41.10
2018-07-13T11:23:45.196Z,40.96
2018-07-13T11:24:51.808Z,41.27
2018-07-13T11:25:57.383Z,40.88
2018-07-13T11:27:03.062Z,40.69
2018-07-13T11:28:09.387Z,40.30
2018-07-13T11:29:14.030Z,40.12
2018-07-13T11:30:19.637Z,40.29
2018-07-13T11:31:24.320Z,40.43
2018-07-13T11:32:29.370Z,40.33
2018-07-13T11:33:34.285Z,40.25
2018-07-13T11:34:40.769Z,40.27
2018-07-13T11:35:47.077Z,40.37
2018-07-13T11:36:52.211Z,40.23
2018-07-13T11:37:57.691Z,40.19
2018-07-13T11:39:03.543Z,40.17
2018-07-13T11:40:08.960Z,39.79
2018-07-13T11:41:13.901Z,39.75
2018-07-13T11:42:19.137Z,39.91
2018-07-13T11:43:23.814Z,39.85
2018-07-13T11:44:30.428Z,39.63
2018-07-13T11:45:37.380Z,39.59
2018-07-13T11:46:43.280Z,39.55
2018-07-13T11:47:47.937Z,39.44
2018-07-13T11:48:52.579Z,39.83
2018-07-13T11:49:59.261Z,39.75
2018-07-13T11:51:03.945Z,39.23
2018-07-13T11:52:08.631Z,39.42
2018-07-13T11:53:13.563Z,39.26
2018-07-13T11:54:20.594Z,39.35
2018-07-13T11:55:25.263Z,39.71
2018-07-13T11:56:30.545Z,40.08
2018-07-13T11:57:36.074Z,40.06
2018-07-13T11:58:41.699Z,40.15
2018-07-13T11:59:48.000Z,39.79
2018-07-13T12:00:53.330Z,39.34
2018-07-13T12:01:58.076Z,38.91
2018-07-13T12:03:02.807Z,38.92
2018-07-13T12:04:08.078Z,38.94
2018-07-13T12:05:13.963Z,38.36
2018-07-13T12:06:19.010Z,38.21
2018-07-13T12:07:23.713Z,37.98
2018-07-13T12:08:28.203Z,37.74
2018-07-13T12:09:34.551Z,37.86
2018-07-13T12:10:40.061Z,37.89
2018-07-13T12:11:45.255Z,38.17
2018-07-13T12:12:50.145Z,38.27
2018-07-13T12:13:54.708Z,37.79
2018-07-13T12:14:59.209Z,37.37
2018-07-13T12:16:04.797Z,37.70
2018-07-13T12:17:09.371Z,37.51
2018-07-13T12:18:14.172Z,37.66
2018-07-13T12:19:21.448Z,37.14
2018-07-13T12:20:27.553Z,37.10
2018-07-13T12:21:33.440Z,36.96
2018-07-13T12:22:39.447Z,36.87
2018-07-13T12:23:48.016Z,37.13
2018-07-13T12:25:02.144Z,36.78
2018-07-13T12:26:10.500Z,36.29
2018-07-13T12:27:18.752Z,36.25
2018-07-13T12:28:28.977Z,35.61
2018-07-13T12:29:37.643Z,35.68
2018-07-13T12:30:53.323Z,35.08
2018-07-13T12:32:00.611Z,35.35
2018-07-13T12:33:11.776Z,35.58
2018-07-13T12:34:16.861Z,35.71
2018-07-13T12:35:25.099Z,35.52
2018-07-13T12:36:39.393Z,35.58
2018-07-13T12:37:51.151Z,35.48
2018-07-13T12:38:56.939Z,35.41
2018-07-13T12:40:04.288Z,35.40
2018-07-13T12:42:22.249Z,35.20
2018-07-13T12:43:34.306Z,34.98
2018-07-13T12:46:06.975Z,34.59
2018-07-13T12:47:14.613Z,34.19
2018-07-13T12:48:21.786Z,34.67
2018-07-13T12:49:29.283Z,34.49
2018-07-13T12:50:36.397Z,34.39
2018-07-13T12:51:42.690Z,34.27
2018-07-13T12:52:48.479Z,34.09
2018-07-13T12:53:54.005Z,33.83
2018-07-13T12:54:59.294Z,33.71
2018-07-13T12:56:07.008Z,33.91
2018-07-13T12:57:13.419Z,34.43
2018-07-13T12:58:18.074Z,33.70
2018-07-13T12:59:23.690Z,33.87
2018-07-13T13:00:29.556Z,33.81
2018-07-13T13:01:35.539Z,33.92
2018-07-13T13:02:41.068Z,33.66
2018-07-13T13:03:48.358Z,33.46
2018-07-13T13:04:54.127Z,33.04
2018-07-13T13:06:01.438Z,32.87
2018-07-13T13:07:07.305Z,33.30
2018-07-13T13:08:12.671Z,33.43
2018-07-13T13:09:18.167Z,33.27
2018-07-13T13:10:24.667Z,33.06
2018-07-13T13:11:29.572Z,33.40
2018-07-13T13:12:35.063Z,33.79
2018-07-13T13:13:39.835Z,33.60
2018-07-13T13:14:44.652Z,33.92
2018-07-13T13:15:52.514Z,33.50
2018-07-13T13:16:58.849Z,33.39
2018-07-13T13:18:06.307Z,33.01
2018-07-13T13:19:13.779Z,32.97
2018-07-13T13:20:24.719Z,32.93
2018-07-13T13:21:31.286Z,32.81
2018-07-13T13:22:38.348Z,33.28
2018-07-13T13:23:52.575Z,33.45
2018-07-13T13:24:58.602Z,33.83
2018-07-13T13:26:10.703Z,34.08
2018-07-13T13:27:19.423Z,34.46
2018-07-13T13:28:30.364Z,34.85
2018-07-13T13:29:41.075Z,34.63
2018-07-13T13:30:49.460Z,34.71
2018-07-13T13:31:58.432Z,34.41
2018-07-13T13:33:08.978Z,34.08
2018-07-13T13:34:17.452Z,33.93
2018-07-13T13:35:25.333Z,33.94
2018-07-13T13:36:30.652Z,33.81
2018-07-13T13:37:39.313Z,33.97
2018-07-13T13:38:51.038Z,33.87
2018-07-13T13:39:57.627Z,33.55
2018-07-13T13:41:03.828Z,33.48
2018-07-13T13:42:12.091Z,33.39
2018-07-13T13:43:16.870Z,33.54
2018-07-13T13:44:22.328Z,33.29
2018-07-13T13:45:29.411Z,33.55
2018-07-13T13:46:34.176Z,33.77
2018-07-13T13:47:39.313Z,33.96
2018-07-13T13:48:44.974Z,34.03
2018-07-13T13:49:51.491Z,33.81
2018-07-13T13:50:56.208Z,33.73
2018-07-13T13:52:03.232Z,33.90
2018-07-13T13:53:18.516Z,33.74
2018-07-13T13:54:32.694Z,33.60
2018-07-13T13:55:38.830Z,33.26
2018-07-13T13:56:43.567Z,32.56
2018-07-13T13:57:48.249Z,32.43
2018-07-13T13:58:53.268Z,32.35
2018-07-13T13:59:59.401Z,32.21
2018-07-13T14:01:05.009Z,32.06
2018-07-13T14:02:10.193Z,32.81
2018-07-13T14:03:14.813Z,33.05
2018-07-13T14:04:20.196Z,33.16
2018-07-13T14:05:26.465Z,33.41
2018-07-13T14:06:32.448Z,34.11
2018-07-13T14:07:39.827Z,34.37
2018-07-13T14:08:44.469Z,34.55
2018-07-13T14:09:49.559Z,34.61
2018-07-13T14:10:58.763Z,34.69
2018-07-13T14:12:06.413Z,34.67